Time;durP1;ratioP1;P1;durP2;ratioP2;P2;SDS_P1;SDS_P2;PMS_P1;PMS_P2;Temp;Humidity;BMP_temperature;BMP_pressure;BME280_temperature;BME280_humidity;BME280_pressure;Samples;Min_cycle;Max_cycle;Signal;HPM_P1;HPM_P2
2021/07/30 00:00:55;;;;;;;9.13;3.58;;;18.60;99.90;;;;;;5073357;28;20174;-80
2021/07/30 00:03:20;;;;;;;9.43;3.10;;;18.60;99.90;;;;;;5057033;28;20162;-80
2021/07/30 00:05:49;;;;;;;11.30;3.88;;;18.50;99.90;;;;;;5074855;28;20185;-79
2021/07/30 00:08:15;;;;;;;9.50;3.13;;;18.40;99.90;;;;;;5074958;28;20268;-80
2021/07/30 00:10:41;;;;;;;3.97;2.90;;;18.50;99.90;;;;;;5074937;28;20627;-80
2021/07/30 00:13:06;;;;;;;5.53;2.70;;;18.60;99.90;;;;;;5074935;28;20166;-80
2021/07/30 00:15:32;;;;;;;9.25;3.72;;;18.60;99.90;;;;;;5073407;28;20534;-79
2021/07/30 00:17:57;;;;;;;6.38;2.58;;;18.60;99.90;;;;;;5074564;28;20163;-80
2021/07/30 00:20:23;;;;;;;6.65;3.40;;;18.60;99.90;;;;;;5074776;28;20166;-80
2021/07/30 00:22:49;;;;;;;4.75;2.50;;;18.40;99.90;;;;;;5074505;28;20173;-79
2021/07/30 00:25:14;;;;;;;7.57;3.05;;;18.40;99.90;;;;;;5074480;28;20193;-80
2021/07/30 00:27:40;;;;;;;10.07;2.85;;;18.50;99.90;;;;;;5074511;28;20245;-80
2021/07/30 00:30:07;;;;;;;12.68;4.13;;;18.50;99.90;;;;;;5074612;28;20209;-80
2021/07/30 00:32:32;;;;;;;7.07;3.40;;;18.50;99.90;;;;;;5074662;28;20670;-80
2021/07/30 00:34:58;;;;;;;9.63;2.75;;;18.40;99.90;;;;;;5074581;28;20273;-79
2021/07/30 00:37:23;;;;;;;9.20;3.25;;;18.40;99.90;;;;;;5074291;28;20228;-79
2021/07/30 00:39:49;;;;;;;8.63;3.03;;;18.50;99.90;;;;;;5073028;28;20170;-80
2021/07/30 00:42:14;;;;;;;5.13;2.58;;;18.40;99.90;;;;;;5073077;28;20173;-80
2021/07/30 00:44:40;;;;;;;9.10;2.70;;;18.30;99.90;;;;;;5072694;28;20672;-79
2021/07/30 00:47:06;;;;;;;9.30;2.53;;;18.30;99.90;;;;;;5072948;28;20261;-80
2021/07/30 00:49:32;;;;;;;10.70;3.15;;;18.40;99.90;;;;;;5074328;28;20198;-80
2021/07/30 00:51:58;;;;;;;5.75;3.17;;;18.50;99.90;;;;;;5074045;28;20630;-79
2021/07/30 00:54:24;;;;;;;6.70;3.65;;;18.30;99.90;;;;;;5072978;28;20166;-79
2021/07/30 00:56:52;;;;;;;14.98;2.72;;;18.40;99.90;;;;;;5072646;28;20195;-79
2021/07/30 00:59:18;;;;;;;7.03;2.60;;;18.40;99.90;;;;;;5072543;28;20208;-80
2021/07/30 01:01:44;;;;;;;11.00;2.58;;;18.50;99.90;;;;;;5072492;28;20238;-80
2021/07/30 01:04:09;;;;;;;6.90;2.90;;;18.40;99.90;;;;;;5073726;28;20692;-79
2021/07/30 01:06:35;;;;;;;19.88;3.42;;;18.30;99.90;;;;;;5072441;28;20535;-79
2021/07/30 01:09:01;;;;;;;12.65;3.03;;;18.30;99.90;;;;;;5072340;28;20252;-80
2021/07/30 01:11:26;;;;;;;14.57;3.00;;;18.20;99.90;;;;;;5072462;28;20162;-80
2021/07/30 01:13:52;;;;;;;9.48;3.17;;;18.10;99.90;;;;;;5073337;28;20226;-81
2021/07/30 01:16:18;;;;;;;11.40;2.60;;;18.20;99.90;;;;;;5073951;28;20545;-82
2021/07/30 01:18:43;;;;;;;6.38;3.17;;;18.30;99.90;;;;;;5073450;28;20669;-81
2021/07/30 01:21:09;;;;;;;15.10;3.30;;;18.40;99.90;;;;;;5073693;28;20171;-80
2021/07/30 01:23:35;;;;;;;6.70;3.00;;;18.20;99.90;;;;;;5072220;28;20166;-79
2021/07/30 01:26:01;;;;;;;9.18;3.65;;;18.20;99.90;;;;;;5073522;28;20547;-80
2021/07/30 01:28:31;;;;;;;4.97;3.33;;;18.10;99.90;;;;;;5073395;28;20217;-79
2021/07/30 01:30:58;;;;;;;11.02;2.90;;;18.10;99.90;;;;;;5073658;28;20249;-79
2021/07/30 01:33:23;;;;;;;10.95;3.40;;;18.20;99.90;;;;;;5072110;28;20162;-79
2021/07/30 01:35:49;;;;;;;5.20;2.83;;;18.10;99.90;;;;;;5073463;28;20189;-80
2021/07/30 01:38:16;;;;;;;5.30;2.50;;;18.20;99.90;;;;;;5073099;28;20159;-79
2021/07/30 01:40:42;;;;;;;19.75;3.03;;;18.20;99.90;;;;;;5072035;28;20174;-79
2021/07/30 01:43:08;;;;;;;7.15;3.10;;;18.20;99.90;;;;;;5072100;28;20166;-80
2021/07/30 01:45:34;;;;;;;11.30;2.85;;;18.10;99.90;;;;;;5071750;28;20280;-80
2021/07/30 01:47:59;;;;;;;4.63;3.03;;;18.20;99.90;;;;;;5071617;28;20261;-80
2021/07/30 01:50:25;;;;;;;11.88;2.80;;;18.20;99.90;;;;;;5072994;28;20177;-79
2021/07/30 01:52:51;;;;;;;9.70;3.20;;;18.10;99.90;;;;;;5073062;28;20174;-80
2021/07/30 01:55:16;;;;;;;14.30;3.10;;;18.10;99.90;;;;;;5071769;28;20548;-80
2021/07/30 01:57:42;;;;;;;8.60;3.13;;;18.10;99.90;;;;;;5071540;28;20158;-80
2021/07/30 02:00:08;;;;;;;8.05;3.10;;;18.20;99.90;;;;;;5071433;28;20554;-80
2021/07/30 02:02:34;;;;;;;6.25;3.35;;;18.20;99.90;;;;;;5072334;28;20181;-80
2021/07/30 02:05:00;;;;;;;10.65;3.28;;;18.00;99.90;;;;;;5072849;28;20178;-79
2021/07/30 02:07:27;;;;;;;5.88;2.90;;;17.90;99.90;;;;;;5072977;28;20188;-80
2021/07/30 02:09:52;;;;;;;10.73;2.95;;;17.90;99.90;;;;;;5072791;28;20285;-79
2021/07/30 02:12:18;;;;;;;10.57;3.08;;;17.90;99.90;;;;;;5071601;28;20630;-79
2021/07/30 02:14:44;;;;;;;6.20;3.40;;;18.00;99.90;;;;;;5071230;28;20591;-80
2021/07/30 02:17:09;;;;;;;12.38;3.33;;;17.90;99.90;;;;;;5072593;28;20171;-79
2021/07/30 02:19:35;;;;;;;7.68;3.38;;;17.80;99.90;;;;;;5072824;28;20171;-79
2021/07/30 02:22:01;;;;;;;9.90;3.28;;;17.90;99.90;;;;;;5071342;28;20247;-80
2021/07/30 02:24:26;;;;;;;8.20;3.50;;;17.90;99.90;;;;;;5072719;28;20167;-79
2021/07/30 02:26:55;;;;;;;9.90;3.63;;;17.70;99.90;;;;;;5072315;28;20717;-80
2021/07/30 02:29:21;;;;;;;10.07;3.53;;;17.70;99.90;;;;;;5071164;28;20222;-79
2021/07/30 02:31:50;;;;;;;8.88;3.33;;;17.60;99.90;;;;;;5071390;28;20162;-80
2021/07/30 02:34:16;;;;;;;8.82;3.35;;;17.50;99.90;;;;;;5071290;28;20178;-80
2021/07/30 02:36:42;;;;;;;5.75;2.70;;;17.40;99.90;;;;;;5072461;28;20193;-80
2021/07/30 02:39:08;;;;;;;7.53;3.03;;;17.40;99.90;;;;;;5072538;28;20194;-79
2021/07/30 02:41:34;;;;;;;12.00;3.05;;;17.40;99.90;;;;;;5072380;28;20205;-79
2021/07/30 02:43:59;;;;;;;6.88;2.90;;;17.40;99.90;;;;;;5072590;28;20210;-80
2021/07/30 02:46:25;;;;;;;10.10;3.65;;;17.40;99.90;;;;;;5071001;28;20183;-79
2021/07/30 02:48:51;;;;;;;9.23;3.22;;;17.50;99.90;;;;;;5072400;28;20202;-79
2021/07/30 02:51:18;;;;;;;6.43;3.20;;;17.50;99.90;;;;;;5071201;28;20245;-79
2021/07/30 02:53:44;;;;;;;5.82;4.13;;;17.60;99.90;;;;;;5071048;28;20538;-79
2021/07/30 02:56:10;;;;;;;6.13;3.47;;;17.60;99.90;;;;;;5070946;28;20183;-79
2021/07/30 02:58:38;;;;;;;22.85;3.85;;;17.70;99.90;;;;;;5072249;28;20220;-79
2021/07/30 03:01:04;;;;;;;7.07;3.58;;;17.60;99.90;;;;;;5072205;28;20646;-79
2021/07/30 03:03:30;;;;;;;10.32;3.38;;;17.60;99.90;;;;;;5071074;28;20166;-79
2021/07/30 03:06:00;;;;;;;10.13;3.10;;;17.50;99.90;;;;;;5070931;28;20736;-79
2021/07/30 03:08:29;;;;;;;5.13;3.35;;;17.30;99.90;;;;;;5070532;28;20211;-79
2021/07/30 03:10:55;;;;;;;7.18;3.92;;;17.10;99.90;;;;;;5070714;28;20167;-80
2021/07/30 03:13:21;;;;;;;13.38;3.67;;;17.20;99.90;;;;;;5070655;28;20182;-80
2021/07/30 03:15:51;;;;;;;5.80;3.30;;;17.40;99.90;;;;;;5071859;28;20186;-80
2021/07/30 03:18:17;;;;;;;5.32;3.55;;;17.20;99.90;;;;;;5070604;28;20543;-80
2021/07/30 03:20:43;;;;;;;6.30;3.42;;;17.10;99.90;;;;;;5072125;28;20181;-80
2021/07/30 03:23:08;;;;;;;11.98;3.38;;;17.20;99.90;;;;;;5071918;28;20174;-79
2021/07/30 03:25:34;;;;;;;8.75;4.43;;;17.30;99.90;;;;;;5071739;28;20723;-80
2021/07/30 03:27:59;;;;;;;18.88;4.45;;;17.20;99.90;;;;;;5071666;28;20187;-79
2021/07/30 03:30:25;;;;;;;5.43;4.00;;;17.20;99.90;;;;;;5071963;28;20181;-79
2021/07/30 03:32:50;;;;;;;13.13;3.60;;;17.30;99.90;;;;;;5071826;28;20178;-80
2021/07/30 03:35:16;;;;;;;7.45;3.30;;;17.30;99.90;;;;;;5070517;28;20191;-80
2021/07/30 03:37:42;;;;;;;11.30;3.75;;;17.20;99.90;;;;;;5074306;28;20213;-80
2021/07/30 03:40:08;;;;;;;12.32;3.50;;;17.30;99.90;;;;;;5075524;28;20250;-80
2021/07/30 03:42:34;;;;;;;10.85;4.05;;;17.10;99.90;;;;;;5074457;28;20191;-80
2021/07/30 03:45:00;;;;;;;14.43;3.63;;;17.10;99.90;;;;;;5075713;28;20650;-80
2021/07/30 03:47:25;;;;;;;17.65;4.30;;;17.20;99.90;;;;;;5074237;28;20170;-80
2021/07/30 03:49:51;;;;;;;10.27;3.92;;;17.10;99.90;;;;;;5074080;28;20214;-79
2021/07/30 03:52:18;;;;;;;5.88;2.90;;;17.20;99.90;;;;;;5074195;28;20171;-79
2021/07/30 03:54:44;;;;;;;6.47;3.65;;;17.20;99.90;;;;;;5073632;28;20171;-79
2021/07/30 03:57:10;;;;;;;7.22;3.30;;;17.20;99.90;;;;;;5074989;28;20170;-80
2021/07/30 03:59:35;;;;;;;10.52;3.90;;;17.10;99.90;;;;;;5074999;28;20193;-79
2021/07/30 04:02:01;;;;;;;8.55;2.95;;;17.10;99.90;;;;;;5074933;28;20167;-79
2021/07/30 04:04:27;;;;;;;7.53;3.47;;;17.00;99.90;;;;;;5075077;28;20198;-79
2021/07/30 04:06:52;;;;;;;5.88;3.95;;;17.10;99.90;;;;;;5075194;28;20665;-80
2021/07/30 04:09:18;;;;;;;16.00;4.60;;;17.20;99.90;;;;;;5075090;28;20209;-79
2021/07/30 04:11:44;;;;;;;12.80;4.18;;;17.20;99.90;;;;;;5073940;28;20171;-79
2021/07/30 04:14:09;;;;;;;10.02;3.75;;;17.20;99.90;;;;;;5074519;28;20245;-79
2021/07/30 04:16:38;;;;;;;5.53;3.50;;;17.30;99.90;;;;;;5073608;28;20198;-79
2021/07/30 04:19:04;;;;;;;13.73;3.97;;;17.40;99.90;;;;;;5073978;28;20572;-79
2021/07/30 04:21:30;;;;;;;7.88;3.63;;;17.40;99.90;;;;;;5075103;28;20164;-80
2021/07/30 04:23:58;;;;;;;11.20;4.22;;;17.30;99.90;;;;;;5074865;28;20622;-80
2021/07/30 04:26:24;;;;;;;9.93;3.83;;;17.40;99.90;;;;;;5073383;28;20281;-80
2021/07/30 04:28:49;;;;;;;15.27;3.92;;;17.50;99.90;;;;;;5074670;28;20297;-79
2021/07/30 04:31:15;;;;;;;10.20;3.83;;;17.50;99.90;;;;;;5074575;28;20166;-79
2021/07/30 04:33:40;;;;;;;8.77;3.60;;;17.40;99.90;;;;;;5074774;28;20177;-79
2021/07/30 04:36:15;;;;;;;11.45;3.53;;;17.30;99.90;;;;;;5073678;28;20240;-80
2021/07/30 04:38:43;;;;;;;20.10;3.35;;;17.40;99.90;;;;;;5072875;28;20166;-79
2021/07/30 04:41:08;;;;;;;9.52;3.83;;;17.40;99.90;;;;;;5074435;28;20169;-80
2021/07/30 04:43:35;;;;;;;8.20;3.08;;;17.50;99.90;;;;;;5074553;28;20167;-79
2021/07/30 04:46:01;;;;;;;6.10;2.78;;;17.50;99.90;;;;;;5074610;28;20182;-80
2021/07/30 04:48:26;;;;;;;11.20;3.10;;;17.60;99.90;;;;;;5072813;28;20202;-80
2021/07/30 04:50:53;;;;;;;4.55;2.70;;;17.40;99.90;;;;;;5074277;28;20177;-80
2021/07/30 04:53:18;;;;;;;18.35;3.92;;;17.40;99.90;;;;;;5073016;28;20166;-79
2021/07/30 04:55:44;;;;;;;5.85;3.20;;;17.40;99.90;;;;;;5074261;28;20194;-80
2021/07/30 04:58:10;;;;;;;9.07;3.40;;;17.50;99.90;;;;;;5072716;28;20162;-80
2021/07/30 05:00:35;;;;;;;6.80;3.40;;;17.60;99.90;;;;;;5072619;28;20676;-80
2021/07/30 05:03:01;;;;;;;8.40;2.90;;;17.80;99.90;;;;;;5072677;28;20179;-80
2021/07/30 05:05:30;;;;;;;9.90;3.20;;;17.90;99.90;;;;;;5074064;28;20560;-79
2021/07/30 05:07:56;;;;;;;9.10;3.13;;;17.80;99.90;;;;;;5072480;28;20167;-80
2021/07/30 05:10:21;;;;;;;6.68;2.60;;;17.80;99.90;;;;;;5073656;28;20186;-80
2021/07/30 05:12:47;;;;;;;6.18;2.65;;;18.00;99.90;;;;;;5072211;28;20167;-80
2021/07/30 05:15:13;;;;;;;5.75;3.10;;;18.00;99.90;;;;;;5073538;28;20650;-80
2021/07/30 05:17:42;;;;;;;5.75;2.67;;;18.20;99.90;;;;;;5073668;28;20167;-80
2021/07/30 05:20:09;;;;;;;12.75;2.78;;;18.50;99.90;;;;;;5073842;28;20170;-80
2021/07/30 05:22:35;;;;;;;5.55;2.25;;;18.60;99.90;;;;;;5073336;28;20163;-79
2021/07/30 05:25:01;;;;;;;6.70;2.42;;;18.80;99.90;;;;;;5073154;28;20189;-80
2021/07/30 05:27:26;;;;;;;13.48;2.75;;;18.90;99.90;;;;;;5072034;28;20530;-80
2021/07/30 05:29:52;;;;;;;4.50;2.20;;;19.00;99.90;;;;;;5071883;28;20206;-80
2021/07/30 05:32:17;;;;;;;7.85;2.63;;;18.70;99.90;;;;;;5072937;28;20162;-80
2021/07/30 05:34:43;;;;;;;7.40;2.45;;;19.00;99.90;;;;;;5073129;28;20211;-80
2021/07/30 05:37:10;;;;;;;6.97;3.15;;;19.10;99.90;;;;;;5073352;28;20165;-80
2021/07/30 05:39:35;;;;;;;9.05;2.63;;;19.30;99.90;;;;;;5073353;28;20249;-80
2021/07/30 05:42:01;;;;;;;7.28;2.28;;;19.60;99.90;;;;;;5072201;28;20254;-81
2021/07/30 05:44:27;;;;;;;2.95;1.75;;;19.80;99.90;;;;;;5073001;28;20198;-81
2021/07/30 05:46:53;;;;;;;8.50;2.28;;;19.90;99.90;;;;;;5071935;28;20182;-80
2021/07/30 05:49:18;;;;;;;3.35;2.42;;;19.90;99.90;;;;;;5072823;28;20206;-80
2021/07/30 05:51:44;;;;;;;6.25;2.15;;;20.00;99.90;;;;;;5072215;28;20257;-80
2021/07/30 05:54:09;;;;;;;4.93;2.60;;;19.70;99.90;;;;;;5071693;28;20179;-80
2021/07/30 05:56:35;;;;;;;11.35;2.20;;;19.90;99.90;;;;;;5072974;28;20669;-80
2021/07/30 05:59:00;;;;;;;8.98;2.38;;;20.00;99.90;;;;;;5072764;28;20212;-80
2021/07/30 06:01:26;;;;;;;6.40;2.35;;;19.90;99.90;;;;;;5073034;28;20166;-79
2021/07/30 06:03:52;;;;;;;10.45;2.00;;;19.90;99.90;;;;;;5072754;28;20971;-80
2021/07/30 06:06:17;;;;;;;8.30;2.85;;;19.80;99.90;;;;;;5072760;28;20228;-80
2021/07/30 06:08:43;;;;;;;6.20;1.77;;;19.90;99.90;;;;;;5072849;28;20198;-80
2021/07/30 06:11:09;;;;;;;3.67;1.77;;;20.00;99.90;;;;;;5071682;28;20209;-80
2021/07/30 06:13:34;;;;;;;4.95;2.10;;;20.00;99.90;;;;;;5072926;28;20194;-80
2021/07/30 06:16:00;;;;;;;18.85;1.55;;;19.80;99.90;;;;;;5072893;28;20191;-81
2021/07/30 06:18:25;;;;;;;5.10;1.63;;;19.70;99.90;;;;;;5072621;28;20171;-80
2021/07/30 06:20:51;;;;;;;5.13;1.80;;;19.90;99.90;;;;;;5071576;28;20511;-80
2021/07/30 06:23:17;;;;;;;5.45;1.80;;;20.00;99.90;;;;;;5071446;28;20166;-80
2021/07/30 06:25:43;;;;;;;5.15;2.28;;;20.10;99.90;;;;;;5072789;28;20681;-80
2021/07/30 06:28:08;;;;;;;4.00;1.73;;;20.00;99.90;;;;;;5072421;28;20189;-80
2021/07/30 06:30:34;;;;;;;5.38;2.05;;;20.00;99.90;;;;;;5072578;28;20202;-80
2021/07/30 06:33:00;;;;;;;10.43;2.13;;;20.30;99.90;;;;;;5072249;28;20254;-80
2021/07/30 06:35:26;;;;;;;4.30;1.80;;;20.00;99.90;;;;;;5071273;28;20194;-81
2021/07/30 06:37:52;;;;;;;6.25;1.73;;;20.00;99.90;;;;;;5072439;28;20177;-83
2021/07/30 06:40:18;;;;;;;5.22;1.60;;;20.30;99.90;;;;;;5072532;28;20158;-84
2021/07/30 06:42:43;;;;;;;8.02;1.92;;;20.40;99.90;;;;;;5073643;28;20174;-85
2021/07/30 06:45:09;;;;;;;2.25;2.05;;;20.50;99.90;;;;;;5072065;28;20188;-87
2021/07/30 06:47:38;;;;;;;2.70;1.65;;;20.50;99.90;;;;;;5072576;28;20684;-81
2021/07/30 06:50:05;;;;;;;2.38;1.60;;;20.70;99.90;;;;;;5071901;28;20209;-81
2021/07/30 06:52:33;;;;;;;3.88;1.63;;;20.70;99.90;;;;;;5070544;28;20171;-80
2021/07/30 06:54:59;;;;;;;2.95;1.60;;;20.70;99.90;;;;;;5071071;28;20201;-81
2021/07/30 06:57:24;;;;;;;2.10;1.60;;;20.90;99.90;;;;;;5070912;28;20163;-82
2021/07/30 06:59:50;;;;;;;6.00;1.70;;;20.70;99.90;;;;;;5071277;28;20169;-80
2021/07/30 07:02:16;;;;;;;3.78;1.83;;;20.80;99.90;;;;;;5072099;28;20564;-81
2021/07/30 07:04:42;;;;;;;9.85;1.70;;;20.90;99.90;;;;;;5072027;28;20253;-81
2021/07/30 07:07:08;;;;;;;12.95;1.85;;;21.00;99.90;;;;;;5072912;28;20636;-80
2021/07/30 07:09:35;;;;;;;2.45;1.63;;;21.20;99.90;;;;;;5073974;28;20562;-80
2021/07/30 07:12:04;;;;;;;3.53;1.25;;;21.20;99.90;;;;;;5077464;28;20181;-83
2021/07/30 07:14:30;;;;;;;5.70;1.77;;;20.90;99.90;;;;;;5078852;28;20166;-90
2021/07/30 07:16:56;;;;;;;1.80;1.38;;;21.10;99.90;;;;;;5077965;28;20182;-80
2021/07/30 07:19:23;;;;;;;3.13;1.58;;;21.50;99.90;;;;;;5077176;28;20186;-84
2021/07/30 07:21:50;;;;;;;3.38;1.42;;;21.50;99.90;;;;;;5076902;28;20170;-80
2021/07/30 07:24:17;;;;;;;1.92;1.73;;;22.00;99.90;;;;;;5078254;28;20154;-82
2021/07/30 07:26:43;;;;;;;1.90;1.70;;;22.40;99.90;;;;;;5077375;28;20190;-80
2021/07/30 07:29:09;;;;;;;2.28;1.48;;;22.70;99.90;;;;;;5078374;28;20199;-85
2021/07/30 07:31:35;;;;;;;6.13;2.10;;;23.40;99.90;;;;;;5076393;28;20517;-78
2021/07/30 07:34:00;;;;;;;3.35;1.80;;;24.30;99.90;;;;;;5076110;28;20171;-79
2021/07/30 07:36:26;;;;;;;7.55;1.58;;;24.80;99.90;;;;;;5075900;28;20664;-79
2021/07/30 07:38:52;;;;;;;4.82;2.33;;;25.30;99.90;;;;;;5072468;28;20182;-84
2021/07/30 07:41:17;;;;;;;2.85;1.70;;;24.80;99.90;;;;;;5057055;28;20189;-84
2021/07/30 07:43:44;;;;;;;3.63;1.40;;;24.60;99.90;;;;;;5056863;28;20163;-84
2021/07/30 07:46:10;;;;;;;3.08;1.40;;;24.20;99.90;;;;;;5057058;28;20613;-84
2021/07/30 07:48:35;;;;;;;1.55;1.45;;;23.90;99.90;;;;;;5064909;28;20229;-89
2021/07/30 07:51:01;;;;;;;2.80;1.40;;;23.70;99.90;;;;;;5078071;28;20178;-86
2021/07/30 07:53:30;;;;;;;4.45;1.20;;;23.80;99.90;;;;;;5076090;28;20170;-89
2021/07/30 07:56:04;;;;;;;2.00;1.80;;;23.80;99.90;;;;;;5075657;28;20190;-91
2021/07/30 07:58:31;;;;;;;5.18;1.50;;;24.10;99.90;;;;;;5077031;28;20257;-86
2021/07/30 08:00:57;;;;;;;2.60;1.60;;;24.30;99.90;;;;;;5077492;28;20757;-89
2021/07/30 08:03:23;;;;;;;3.53;1.67;;;24.60;99.90;;;;;;5079165;28;20170;-91
2021/07/30 08:05:48;;;;;;;4.30;1.58;;;24.80;99.90;;;;;;5079264;28;20193;-92
2021/07/30 08:08:14;;;;;;;10.30;2.20;;;24.70;99.90;;;;;;5077846;28;20615;-91
2021/07/30 08:10:40;;;;;;;3.70;1.95;;;24.40;99.90;;;;;;5079878;28;20247;-94
2021/07/30 08:13:06;;;;;;;2.22;1.98;;;24.00;99.90;;;;;;5077371;28;20162;-91
2021/07/30 08:15:32;;;;;;;8.65;1.98;;;24.10;99.90;;;;;;5078006;28;20249;-92
2021/07/30 08:17:57;;;;;;;2.13;1.60;;;23.90;99.90;;;;;;5078606;28;20171;-93
2021/07/30 08:20:23;;;;;;;2.58;1.70;;;23.90;99.90;;;;;;5078158;28;20162;-92
2021/07/30 08:22:50;;;;;;;3.50;1.75;;;23.80;99.90;;;;;;5079186;28;20514;-89
2021/07/30 08:25:16;;;;;;;14.55;2.00;;;23.60;99.90;;;;;;5081585;28;20190;-88
2021/07/30 08:27:42;;;;;;;3.53;2.00;;;23.80;99.90;;;;;;5080337;28;20180;-90
2021/07/30 08:30:08;;;;;;;4.03;1.92;;;24.00;99.90;;;;;;5059186;28;20233;-90
2021/07/30 08:32:34;;;;;;;2.13;1.50;;;24.20;99.90;;;;;;5059529;28;20254;-88
2021/07/30 08:35:00;;;;;;;2.85;1.67;;;24.10;99.90;;;;;;5063829;28;20202;-84
2021/07/30 08:37:26;;;;;;;2.80;2.00;;;24.00;99.90;;;;;;5077157;28;20242;-85
2021/07/30 08:39:52;;;;;;;4.45;2.00;;;24.00;99.90;;;;;;5081236;28;20263;-93
2021/07/30 08:42:19;;;;;;;5.45;1.60;;;23.90;99.90;;;;;;5087051;28;20171;-89
2021/07/30 08:44:49;;;;;;;2.60;1.65;;;24.00;99.90;;;;;;5086162;28;20182;-89
2021/07/30 08:47:30;;;;;;;7.70;1.80;;;24.40;99.90;;;;;;5091063;28;20150;-87
2021/07/30 08:49:58;;;;;;;2.28;1.50;;;24.40;99.90;;;;;;5081582;28;20205;-91
2021/07/30 08:52:56;;;;;;;3.35;1.90;;;24.40;99.90;;;;;;5097649;28;20157;-95
2021/07/30 08:55:29;;;;;;;2.58;2.08;;;24.30;99.90;;;;;;5095318;28;20190;-94
2021/07/30 08:57:57;;;;;;;4.38;1.60;;;24.40;99.90;;;;;;5088476;28;20216;-93
2021/07/30 09:00:24;;;;;;;2.50;1.73;;;24.50;99.90;;;;;;5088516;28;20179;-90
2021/07/30 09:02:56;;;;;;;2.72;2.50;;;24.70;99.90;;;;;;5090095;28;20222;-96
2021/07/30 09:05:39;;;;;;;3.92;1.95;;;25.00;99.90;;;;;;5084663;28;20252;-91
2021/07/30 09:08:10;;;;;;;5.32;2.17;;;25.00;99.90;;;;;;5091035;28;20196;-88
2021/07/30 09:10:57;;;;;;;3.67;2.13;;;25.30;99.90;;;;;;5094061;28;20262;-86
2021/07/30 09:13:32;;;;;;;2.22;1.58;;;25.70;99.90;;;;;;5095430;28;20155;-86
2021/07/30 09:16:28;;;;;;;12.77;1.73;;;26.00;99.90;;;;;;5096588;28;20202;-88
2021/07/30 09:19:06;;;;;;;3.20;1.63;;;26.00;99.90;;;;;;5094777;28;20174;-87
2021/07/30 09:21:39;;;;;;;8.40;2.22;;;26.20;99.90;;;;;;5092897;28;20567;-88
2021/07/30 09:24:20;;;;;;;5.97;1.60;;;26.00;99.90;;;;;;5093060;28;20173;-92
2021/07/30 09:27:12;;;;;;;9.73;1.77;;;26.10;99.90;;;;;;5094430;28;20199;-87
2021/07/30 09:29:40;;;;;;;2.97;1.67;;;26.10;99.90;;;;;;5091992;28;20218;-95
2021/07/30 09:32:11;;;;;;;10.05;2.15;;;25.90;99.90;;;;;;5082995;28;20178;-88
2021/07/30 09:34:45;;;;;;;7.32;1.45;;;25.70;99.90;;;;;;5087151;28;20273;-88
2021/07/30 09:37:13;;;;;;;1.80;1.70;;;25.50;99.90;;;;;;5081987;28;20667;-90
2021/07/30 09:39:47;;;;;;;2.00;1.42;;;25.60;99.90;;;;;;5082594;28;20227;-91
2021/07/30 09:42:19;;;;;;;2.25;2.03;;;25.40;99.90;;;;;;5090006;28;20194;-86
2021/07/30 09:44:51;;;;;;;1.83;1.60;;;25.50;99.90;;;;;;5088794;28;20206;-89
2021/07/30 09:47:29;;;;;;;4.68;2.17;;;25.50;99.90;;;;;;5087513;28;20198;-88
2021/07/30 09:50:29;;;;;;;4.10;2.33;;;25.60;99.90;;;;;;5091579;28;20213;-89
2021/07/30 09:53:03;;;;;;;4.20;1.75;;;25.70;99.90;;;;;;5090487;28;20175;-91
2021/07/30 09:55:30;;;;;;;2.50;1.60;;;25.70;99.90;;;;;;5094093;28;20186;-94
2021/07/30 09:58:01;;;;;;;4.13;1.70;;;25.70;99.90;;;;;;5094067;28;20163;-93
2021/07/30 10:00:29;;;;;;;2.97;1.83;;;25.80;99.90;;;;;;5091918;28;20170;-96
2021/07/30 10:02:56;;;;;;;5.97;1.80;;;26.00;99.90;;;;;;5088739;28;20190;-95
2021/07/30 10:05:23;;;;;;;1.67;1.58;;;25.90;99.90;;;;;;5088268;28;20194;-86
2021/07/30 10:07:51;;;;;;;6.18;1.58;;;25.70;99.90;;;;;;5076393;28;20170;-90
2021/07/30 10:10:28;;;;;;;4.10;1.85;;;25.60;99.90;;;;;;5076508;28;20206;-88
2021/07/30 10:13:06;;;;;;;1.83;1.70;;;25.70;99.90;;;;;;5076294;28;20181;-92
2021/07/30 10:15:33;;;;;;;3.33;1.88;;;26.00;99.90;;;;;;5076511;28;20196;-91
2021/07/30 10:18:02;;;;;;;9.25;2.38;;;26.30;99.90;;;;;;5077385;28;20166;-95
2021/07/30 10:20:27;;;;;;;6.07;2.20;;;26.50;99.90;;;;;;5078685;28;20276;-94
2021/07/30 10:22:59;;;;;;;1.70;1.60;;;26.30;99.90;;;;;;5077873;28;20222;-94
2021/07/30 10:25:52;;;;;;;8.43;1.88;;;26.10;99.90;;;;;;5078624;28;20205;-93
2021/07/30 10:28:21;;;;;;;2.33;1.70;;;25.80;99.90;;;;;;5078152;28;20185;-92
2021/07/30 10:30:59;;;;;;;2.58;1.80;;;26.10;99.90;;;;;;5077678;28;20688;-92
2021/07/30 10:33:31;;;;;;;4.25;2.20;;;25.80;99.90;;;;;;5077023;28;20162;-80
2021/07/30 10:36:00;;;;;;;3.95;1.83;;;25.60;99.90;;;;;;5073169;28;20186;-81
2021/07/30 10:38:27;;;;;;;7.22;2.10;;;25.70;99.90;;;;;;5073838;28;20483;-79
2021/07/30 10:40:58;;;;;;;3.10;2.20;;;25.90;99.90;;;;;;5074099;28;20237;-83
2021/07/30 10:43:33;;;;;;;3.47;1.88;;;25.90;99.90;;;;;;5072652;28;20175;-79
2021/07/30 10:46:11;;;;;;;3.50;2.15;;;25.90;99.90;;;;;;5077159;28;20255;-87
2021/07/30 10:48:43;;;;;;;3.78;2.03;;;25.70;99.90;;;;;;5076367;28;20202;-80
2021/07/30 10:51:27;;;;;;;12.93;1.92;;;25.70;99.90;;;;;;5076756;28;20180;-81
2021/07/30 10:53:55;;;;;;;5.70;1.58;;;25.60;99.90;;;;;;5077806;28;20173;-79
2021/07/30 10:56:20;;;;;;;1.60;1.50;;;25.30;99.90;;;;;;5084498;28;20226;-80
2021/07/30 10:58:46;;;;;;;1.67;1.58;;;25.20;99.90;;;;;;5099908;28;20185;-86
2021/07/30 11:01:14;;;;;;;4.13;1.63;;;25.40;99.90;;;;;;5101215;28;20219;-87
2021/07/30 11:03:52;;;;;;;7.63;1.33;;;25.50;99.90;;;;;;5100103;28;20182;-87
2021/07/30 11:06:18;;;;;;;2.85;1.52;;;25.60;99.90;;;;;;5090680;28;20304;-90
2021/07/30 11:09:12;;;;;;;6.32;1.77;;;25.80;99.90;;;;;;5078728;28;20304;-90
2021/07/30 11:11:39;;;;;;;2.53;1.58;;;26.20;99.90;;;;;;5079139;28;20186;-91
2021/07/30 11:14:13;;;;;;;2.10;1.80;;;26.40;99.90;;;;;;5078515;28;20174;-86
2021/07/30 11:16:43;;;;;;;5.20;1.90;;;26.40;99.90;;;;;;5077874;28;20182;-82
2021/07/30 11:19:10;;;;;;;6.18;1.75;;;26.30;99.90;;;;;;5078669;28;20181;-88
2021/07/30 11:21:35;;;;;;;3.35;1.80;;;26.00;99.90;;;;;;5079502;28;20226;-90
2021/07/30 11:24:03;;;;;;;6.50;1.80;;;25.80;99.90;;;;;;5077976;28;20560;-85
2021/07/30 11:26:30;;;;;;;2.17;1.50;;;25.90;99.90;;;;;;5078710;28;20198;-83
2021/07/30 11:29:00;;;;;;;1.52;1.42;;;25.90;99.90;;;;;;5078926;28;20209;-84
2021/07/30 11:31:26;;;;;;;3.85;1.92;;;26.10;99.90;;;;;;5079398;28;20174;-89
2021/07/30 11:33:55;;;;;;;4.10;1.48;;;26.30;99.90;;;;;;5078751;28;20273;-89
2021/07/30 11:36:22;;;;;;;3.40;1.75;;;25.50;99.90;;;;;;5079756;28;20194;-88
2021/07/30 11:38:56;;;;;;;4.10;1.90;;;25.30;99.90;;;;;;5078860;28;20580;-88
2021/07/30 11:41:23;;;;;;;2.45;2.22;;;25.20;99.90;;;;;;5080515;28;20157;-83
2021/07/30 11:44:07;;;;;;;1.52;1.42;;;25.00;99.90;;;;;;5080010;28;20169;-93
2021/07/30 11:46:35;;;;;;;6.60;1.95;;;24.90;99.90;;;;;;5080083;28;20608;-86
2021/07/30 11:49:02;;;;;;;1.75;1.65;;;24.70;99.90;;;;;;5076835;28;20636;-83
2021/07/30 11:51:28;;;;;;;3.95;2.03;;;24.60;99.90;;;;;;5079947;28;20169;-86
2021/07/30 11:53:56;;;;;;;5.57;1.58;;;24.30;99.90;;;;;;5080372;28;20171;-82
2021/07/30 11:56:22;;;;;;;10.65;1.95;;;24.10;99.90;;;;;;5066134;22;20750;-85
2021/07/30 11:58:59;;;;;;;2.58;2.38;;;23.80;99.90;;;;;;5034670;28;20218;-84
2021/07/30 12:01:25;;;;;;;4.47;1.55;;;23.60;99.90;;;;;;5033935;28;20643;-82
2021/07/30 12:04:08;;;;;;;3.78;2.38;;;23.50;99.90;;;;;;5017067;28;20533;-82
2021/07/30 12:06:49;;;;;;;2.00;1.90;;;23.50;99.90;;;;;;5030878;28;20253;-83
2021/07/30 12:09:17;;;;;;;7.68;1.95;;;23.60;99.90;;;;;;5035593;28;20285;-82
2021/07/30 12:11:48;;;;;;;1.90;1.80;;;23.70;99.90;;;;;;5036124;28;20168;-86
2021/07/30 12:14:14;;;;;;;5.82;1.88;;;23.50;99.90;;;;;;5035243;28;20200;-80
2021/07/30 12:16:41;;;;;;;2.33;1.88;;;23.50;99.90;;;;;;5035585;28;20261;-81
2021/07/30 12:19:07;;;;;;;2.00;1.42;;;23.50;99.90;;;;;;5032704;28;20168;-81
2021/07/30 12:21:33;;;;;;;3.47;1.80;;;23.50;99.90;;;;;;5031813;28;20171;-82
2021/07/30 12:24:05;;;;;;;2.47;1.92;;;23.70;99.90;;;;;;5034334;28;20167;-85
2021/07/30 12:26:36;;;;;;;3.15;1.95;;;23.80;99.90;;;;;;5036540;28;20196;-82
2021/07/30 12:29:03;;;;;;;5.28;2.10;;;23.60;99.90;;;;;;5017908;28;20265;-83
2021/07/30 12:31:30;;;;;;;1.75;1.65;;;23.60;99.90;;;;;;5016916;28;20192;-84
2021/07/30 12:34:16;;;;;;;3.38;2.00;;;23.30;99.90;;;;;;5033295;28;20628;-84
2021/07/30 12:36:42;;;;;;;2.38;2.17;;;23.30;99.90;;;;;;5017107;28;20214;-83
2021/07/30 12:39:08;;;;;;;8.05;4.03;;;23.00;99.90;;;;;;5017509;28;20168;-83
2021/07/30 12:41:35;;;;;;;3.13;2.60;;;22.90;99.90;;;;;;5017470;28;20218;-83
2021/07/30 12:44:17;;;;;;;5.20;3.13;;;23.20;99.90;;;;;;5016969;28;20178;-83
2021/07/30 12:46:44;;;;;;;4.88;2.53;;;23.00;99.90;;;;;;5017189;28;20198;-83
2021/07/30 12:49:14;;;;;;;3.33;2.78;;;22.90;99.90;;;;;;5015586;28;20668;-82